Time;durP1;ratioP1;P1;durP2;ratioP2;P2;SDS_P1;SDS_P2;PMS_P1;PMS_P2;Temp;Humidity;BMP_temperature;BMP_pressure;BME280_temperature;BME280_humidity;BME280_pressure;Samples;Min_cycle;Max_cycle;Signal;HPM_P1;HPM_P2
2023/11/10 00:00:50;;;;;;;2.55;1.40;;;;;;;-146.25;100.00;52589.22;2072294;28;38060;-71
2023/11/10 00:01:52;;;;;;;4.70;1.60;;;;;;;-146.25;100.00;52593.25;2073500;28;20030;-71
2023/11/10 00:02:54;;;;;;;3.28;1.80;;;;;;;-146.25;100.00;52560.81;2071928;28;34529;-71
2023/11/10 00:03:56;;;;;;;2.25;1.80;;;;;;;-146.25;100.00;52526.34;2072277;28;33016;-71
2023/11/10 00:04:58;;;;;;;2.45;2.00;;;;;;;-146.25;100.00;52585.16;2055137;28;38356;-70
2023/11/10 00:06:03;;;;;;;2.65;1.63;;;;;;;-146.25;100.00;52554.75;2056365;28;37417;-70
2023/11/10 00:07:05;;;;;;;4.40;2.00;;;;;;;-146.25;100.00;52562.84;2064899;28;20074;-71
2023/11/10 00:08:09;;;;;;;2.90;2.00;;;;;;;-146.25;100.00;52587.19;2072326;28;39935;-71
2023/11/10 00:09:14;;;;;;;2.90;2.05;;;;;;;-146.25;100.00;52566.91;2072294;28;32841;-69
2023/11/10 00:10:16;;;;;;;2.78;2.10;;;;;;;-146.25;100.00;52570.97;2063726;28;32673;-71
2023/11/10 00:11:20;;;;;;;3.67;2.10;;;;;;;-146.25;100.00;52568.94;2065346;28;20039;-72
2023/11/10 00:12:22;;;;;;;4.30;1.98;;;;;;;-146.25;100.00;52579.06;2073658;28;20785;-71
2023/11/10 00:13:24;;;;;;;2.83;1.75;;;;;;;-146.25;100.00;52552.72;2072437;28;32216;-71
2023/11/10 00:14:26;;;;;;;2.95;2.00;;;;;;;-146.25;100.00;52556.75;2073025;28;28325;-71
2023/11/10 00:15:31;;;;;;;3.35;2.38;;;;;;;-146.25;100.00;52562.84;2073550;28;20930;-72
2023/11/10 00:16:33;;;;;;;3.75;2.35;;;;;;;-146.25;100.00;52579.06;2072765;28;37118;-71
2023/11/10 00:17:35;;;;;;;5.07;2.00;;;;;;;-146.25;100.00;52583.13;2063833;28;33032;-71
2023/11/10 00:18:37;;;;;;;5.05;2.67;;;;;;;-146.25;100.00;52564.88;2056429;28;33379;-70
2023/11/10 00:19:44;;;;;;;2.83;2.45;;;;;;;-146.25;100.00;52562.84;2063838;28;35695;-71
2023/11/10 00:20:46;;;;;;;3.83;2.25;;;;;;;-146.25;100.00;52581.09;2063909;28;34507;-71
2023/11/10 00:21:50;;;;;;;3.80;2.63;;;;;;;-146.25;100.00;52587.19;2064802;28;33531;-71
2023/11/10 00:22:52;;;;;;;3.08;2.67;;;;;;;-146.25;100.00;52518.25;2063699;28;34802;-72
2023/11/10 00:23:54;;;;;;;3.72;2.50;;;;;;;-146.25;100.00;52583.13;2063935;28;34074;-71
2023/11/10 00:24:56;;;;;;;3.65;2.80;;;;;;;-146.25;100.00;52583.13;2072883;28;31545;-71
2023/11/10 00:25:58;;;;;;;3.92;2.50;;;;;;;-146.25;100.00;52589.22;2072366;28;36940;-71
2023/11/10 00:27:00;;;;;;;3.08;2.78;;;;;;;-146.25;100.00;52550.69;2072795;28;29048;-71
2023/11/10 00:28:03;;;;;;;5.05;3.20;;;;;;;-146.25;100.00;52609.50;2073053;28;20109;-72
2023/11/10 00:29:05;;;;;;;4.65;2.90;;;;;;;-146.25;100.00;52552.72;2063797;28;25024;-71
2023/11/10 00:30:08;;;;;;;5.40;3.30;;;;;;;-146.25;100.00;52532.44;2064249;28;22260;-71
2023/11/10 00:31:11;;;;;;;5.82;3.25;;;;;;;-146.25;100.00;52587.19;2064329;28;20039;-72
2023/11/10 00:32:13;;;;;;;4.13;2.80;;;;;;;-146.25;100.00;52570.97;2064087;28;29213;-71
2023/11/10 00:33:15;;;;;;;4.53;3.20;;;;;;;-146.25;100.00;52566.91;2072889;28;26942;-72
2023/11/10 00:34:17;;;;;;;5.45;3.45;;;;;;;-146.25;100.00;52554.75;2072634;28;28379;-71
2023/11/10 00:35:19;;;;;;;5.38;3.35;;;;;;;-146.25;100.00;52558.78;2073033;28;20046;-71
2023/11/10 00:36:24;;;;;;;4.38;3.47;;;;;;;-146.25;100.00;52583.13;2063376;28;30469;-71
2023/11/10 00:37:26;;;;;;;4.85;3.83;;;;;;;-146.25;100.00;52595.28;2056726;28;25816;-71
2023/11/10 00:38:28;;;;;;;4.50;3.75;;;;;;;-146.25;100.00;52573.00;2065431;28;20039;-71
2023/11/10 00:39:34;;;;;;;4.95;3.42;;;;;;;-146.25;100.00;52573.00;2064243;28;20063;-71
2023/11/10 00:40:37;;;;;;;5.65;3.47;;;;;;;-146.25;100.00;52556.75;2063730;28;31644;-72
2023/11/10 00:41:38;;;;;;;4.57;3.42;;;;;;;-146.25;100.00;52568.94;2063963;28;24665;-71
2023/11/10 00:42:46;;;;;;;6.40;3.38;;;;;;;-146.25;100.00;52554.75;2064728;28;20050;-71
2023/11/10 00:43:49;;;;;;;5.22;3.70;;;;;;;-146.25;100.00;52595.28;2073023;28;20158;-71
2023/11/10 00:44:52;;;;;;;5.47;3.78;;;;;;;-146.25;100.00;52534.47;2072281;28;26210;-71
2023/11/10 00:45:54;;;;;;;5.38;4.10;;;;;;;-146.25;100.00;52546.63;2063734;28;33449;-72
2023/11/10 00:46:55;;;;;;;5.30;3.95;;;;;;;-146.25;100.00;52560.81;2063720;28;30343;-72
2023/11/10 00:48:00;;;;;;;4.82;3.80;;;;;;;-146.25;100.00;52591.25;2064662;28;20041;-71
2023/11/10 00:49:02;;;;;;;5.15;3.63;;;;;;;-146.25;100.00;52587.19;2072191;28;31025;-72
2023/11/10 00:50:06;;;;;;;4.90;4.00;;;;;;;-146.25;100.00;52564.88;2072425;28;20932;-69
2023/11/10 00:51:08;;;;;;;6.38;3.97;;;;;;;-146.25;100.00;52556.75;2047588;28;26108;-71
2023/11/10 00:52:10;;;;;;;6.97;4.30;;;;;;;-146.25;100.00;52536.50;2048300;28;27464;-71
2023/11/10 00:53:12;;;;;;;4.20;3.80;;;;;;;-146.25;100.00;52585.16;2072089;28;28355;-72
2023/11/10 00:54:15;;;;;;;8.68;3.90;;;;;;;-146.25;100.00;52560.81;2072632;28;31796;-72
2023/11/10 00:55:17;;;;;;;7.28;4.68;;;;;;;-146.25;100.00;52566.91;2081200;23;27064;-72
2023/11/10 00:56:19;;;;;;;5.43;4.38;;;;;;;-146.25;100.00;52583.13;2090827;28;29299;-73
2023/11/10 00:57:21;;;;;;;4.65;4.03;;;;;;;-146.25;100.00;52599.34;2096651;28;25746;-73
2023/11/10 00:58:23;;;;;;;6.45;4.30;;;;;;;-146.25;100.00;52550.69;2105938;28;28999;-69
2023/11/10 00:59:25;;;;;;;9.32;4.68;;;;;;;-146.25;100.00;52579.06;2096808;28;20085;-71
2023/11/10 01:00:28;;;;;;;4.90;4.22;;;;;;;-146.25;100.00;52534.47;2088804;28;29175;-73
2023/11/10 01:01:35;;;;;;;6.75;4.50;;;;;;;-146.25;100.00;52595.28;2096749;28;35762;-73
2023/11/10 01:02:37;;;;;;;5.00;4.50;;;;;;;-146.25;100.00;52573.00;2105642;28;29850;-73
2023/11/10 01:03:39;;;;;;;5.53;4.22;;;;;;;-146.25;100.00;52599.34;2105539;28;32396;-73
2023/11/10 01:04:43;;;;;;;5.07;4.20;;;;;;;-146.25;100.00;52546.63;2096810;28;23828;-72
2023/11/10 01:05:45;;;;;;;6.35;4.30;;;;;;;-146.25;100.00;52575.00;2096606;28;32362;-73
2023/11/10 01:06:47;;;;;;;5.40;4.00;;;;;;;-146.25;100.00;52581.09;2088354;28;22462;-73
2023/11/10 01:07:49;;;;;;;6.35;4.50;;;;;;;-146.25;100.00;52570.97;2088485;28;20883;-73
2023/11/10 01:08:51;;;;;;;7.63;5.25;;;;;;;-146.25;100.00;52544.59;2088869;28;32447;-72
2023/11/10 01:09:52;;;;;;;6.60;4.95;;;;;;;-146.25;100.00;52550.69;2088816;28;29661;-73
2023/11/10 01:10:54;;;;;;;10.10;4.57;;;;;;;-146.25;100.00;52534.47;2089058;28;25088;-72
2023/11/10 01:11:56;;;;;;;6.13;4.50;;;;;;;-146.25;100.00;52564.88;2079892;28;20041;-73
2023/11/10 01:12:58;;;;;;;8.50;4.70;;;;;;;-146.25;100.00;52579.06;2080681;28;20845;-72
2023/11/10 01:14:00;;;;;;;6.60;4.72;;;;;;;-146.25;100.00;52550.69;2080379;28;20148;-73
2023/11/10 01:15:02;;;;;;;7.95;4.63;;;;;;;-146.25;100.00;52566.91;2080651;28;20927;-73
2023/11/10 01:16:07;;;;;;;5.70;4.80;;;;;;;-146.25;100.00;52566.91;2072000;28;20092;-71
2023/11/10 01:17:09;;;;;;;5.20;4.70;;;;;;;-146.25;100.00;52548.66;2065269;28;20047;-72
2023/11/10 01:18:11;;;;;;;5.97;4.95;;;;;;;-146.25;100.00;52583.13;2080187;28;20058;-73
2023/11/10 01:19:13;;;;;;;7.07;4.55;;;;;;;-146.25;100.00;52570.97;2088792;28;20045;-73
2023/11/10 01:20:15;;;;;;;7.38;5.13;;;;;;;-146.25;100.00;52556.75;2080188;28;20933;-70
2023/11/10 01:21:18;;;;;;;5.85;4.85;;;;;;;-146.25;100.00;52579.06;2080372;28;20042;-73
2023/11/10 01:22:20;;;;;;;4.88;4.35;;;;;;;-146.25;100.00;52577.03;2089243;28;22336;-73
2023/11/10 01:23:22;;;;;;;5.20;4.70;;;;;;;-146.25;100.00;52587.19;2088455;28;31591;-73
2023/11/10 01:24:24;;;;;;;6.45;4.68;;;;;;;-146.25;100.00;52579.06;2088779;28;29223;-73
2023/11/10 01:25:26;;;;;;;6.60;4.88;;;;;;;-146.25;100.00;52570.97;2088883;28;20038;-73
2023/11/10 01:26:28;;;;;;;6.93;4.90;;;;;;;-146.25;100.00;52544.59;2090473;28;31936;-73
2023/11/10 01:27:30;;;;;;;6.18;5.18;;;;;;;-146.25;100.00;52581.09;2081213;28;20153;-73
2023/11/10 01:28:33;;;;;;;6.38;4.60;;;;;;;-146.25;100.00;52601.38;2080019;28;29035;-73
2023/11/10 01:29:35;;;;;;;7.85;5.10;;;;;;;-146.25;100.00;52570.97;2080017;28;29662;-73
2023/11/10 01:30:36;;;;;;;5.80;4.95;;;;;;;-146.25;100.00;52560.81;2071553;28;27232;-71
2023/11/10 01:31:38;;;;;;;5.70;4.78;;;;;;;-146.25;100.00;52546.63;2080262;28;26561;-72
2023/11/10 01:32:40;;;;;;;6.03;4.97;;;;;;;-146.25;100.00;52589.22;2079618;28;26008;-70
2023/11/10 01:33:43;;;;;;;5.18;4.60;;;;;;;-146.25;100.00;52542.56;2080179;28;30479;-72
2023/11/10 01:34:46;;;;;;;6.20;5.15;;;;;;;-146.25;100.00;52585.16;2089016;28;20046;-69
2023/11/10 01:35:53;;;;;;;5.50;4.60;;;;;;;-146.25;100.00;52577.03;2088758;28;20042;-72
2023/11/10 01:36:55;;;;;;;5.88;5.22;;;;;;;-146.25;100.00;52575.00;2088947;28;25938;-72
2023/11/10 01:37:57;;;;;;;6.15;4.97;;;;;;;-146.25;100.00;52552.72;2089990;28;31925;-72
2023/11/10 01:38:59;;;;;;;5.43;4.75;;;;;;;-146.25;100.00;52560.81;2097249;28;27498;-70
2023/11/10 01:40:02;;;;;;;7.07;5.50;;;;;;;-146.25;100.00;52560.81;2088051;28;28424;-71
2023/11/10 01:41:04;;;;;;;5.30;4.68;;;;;;;-146.25;100.00;52575.00;2088131;28;31667;-71
2023/11/10 01:42:08;;;;;;;5.60;4.57;;;;;;;-146.25;100.00;52566.91;2088430;28;28947;-72
2023/11/10 01:43:13;;;;;;;6.85;5.07;;;;;;;-146.25;100.00;52575.00;2088217;28;31983;-71
2023/11/10 01:44:17;;;;;;;5.15;4.65;;;;;;;-146.25;100.00;52591.25;2096620;28;20664;-71
2023/11/10 01:45:19;;;;;;;5.57;5.00;;;;;;;-146.25;100.00;52562.84;2087744;28;31915;-71
2023/11/10 01:46:47;;;;;;;6.25;5.20;;;;;;;-146.25;100.00;52564.88;2087707;28;32628;-71
2023/11/10 01:47:50;;;;;;;6.00;4.75;;;;;;;-146.25;100.00;52570.97;2097578;28;20833;-72
2023/11/10 01:48:54;;;;;;;5.63;4.57;;;;;;;-146.25;100.00;52562.84;2096732;28;31449;-71
2023/11/10 01:49:56;;;;;;;5.90;4.60;;;;;;;-146.25;100.00;52564.88;2096680;28;29304;-72
2023/11/10 01:50:59;;;;;;;5.22;4.75;;;;;;;-146.25;100.00;52575.00;2096698;28;20045;-71
2023/11/10 01:52:04;;;;;;;7.00;4.88;;;;;;;-146.25;100.00;52542.56;2088138;28;20049;-72
2023/11/10 01:53:10;;;;;;;6.93;5.30;;;;;;;-146.25;100.00;52577.03;2072465;28;20050;-71
2023/11/10 01:54:16;;;;;;;8.57;5.00;;;;;;;-146.25;100.00;52566.91;2081473;28;22707;-72
2023/11/10 01:55:18;;;;;;;5.50;4.82;;;;;;;-146.25;100.00;52536.50;2087343;28;34271;-70
2023/11/10 01:56:23;;;;;;;5.38;4.88;;;;;;;-146.25;100.00;52599.34;2088595;28;20823;-71
2023/11/10 01:57:26;;;;;;;7.53;4.95;;;;;;;-146.25;100.00;52556.75;2088235;28;20029;-71
2023/11/10 01:58:28;;;;;;;6.20;4.75;;;;;;;-146.25;100.00;52573.00;2080146;28;20038;-72
2023/11/10 01:59:33;;;;;;;6.18;4.50;;;;;;;-146.25;100.00;52603.41;2079970;28;20053;-72
2023/11/10 02:00:37;;;;;;;7.40;4.85;;;;;;;-146.25;100.00;52564.88;2080447;28;31329;-72
2023/11/10 02:01:39;;;;;;;6.00;5.07;;;;;;;-146.25;100.00;52536.50;2081081;28;20049;-71
2023/11/10 02:02:41;;;;;;;5.13;4.43;;;;;;;-146.25;100.00;52595.28;2079519;28;20085;-71
2023/11/10 02:03:43;;;;;;;8.07;4.38;;;;;;;-146.25;100.00;52534.47;2088478;28;22683;-71
2023/11/10 02:04:45;;;;;;;7.93;5.03;;;;;;;-146.25;100.00;52556.75;2087820;28;20037;-71
2023/11/10 02:05:46;;;;;;;5.70;4.57;;;;;;;-146.25;100.00;52575.00;2088230;28;20930;-71
2023/11/10 02:06:48;;;;;;;8.63;4.53;;;;;;;-146.25;100.00;52562.84;2096238;28;30538;-72
2023/11/10 02:07:50;;;;;;;5.93;4.78;;;;;;;-146.25;100.00;52583.13;2088177;28;29092;-72
2023/11/10 02:08:52;;;;;;;7.13;4.93;;;;;;;-146.25;100.00;52562.84;2079594;28;20240;-71
2023/11/10 02:09:54;;;;;;;5.68;5.00;;;;;;;-146.25;100.00;52583.13;2079952;28;27203;-71
2023/11/10 02:10:57;;;;;;;4.70;4.30;;;;;;;-146.25;100.00;52587.19;2088392;28;27294;-73
2023/11/10 02:11:59;;;;;;;5.22;4.50;;;;;;;-146.25;100.00;52585.16;2088807;28;22358;-71
2023/11/10 02:13:01;;;;;;;7.72;4.50;;;;;;;-146.25;100.00;52595.28;2088488;28;20041;-71
2023/11/10 02:14:09;;;;;;;6.18;4.55;;;;;;;-146.25;100.00;52585.16;2088998;28;20898;-72
2023/11/10 02:15:11;;;;;;;5.75;4.72;;;;;;;-146.25;100.00;52550.69;2089523;28;20929;-72
2023/11/10 02:16:13;;;;;;;4.88;4.38;;;;;;;-146.25;100.00;52554.75;2088940;28;20080;-71
2023/11/10 02:17:17;;;;;;;8.10;4.53;;;;;;;-146.25;100.00;52546.63;2079678;28;20049;-72
2023/11/10 02:18:19;;;;;;;6.47;4.30;;;;;;;-146.25;100.00;52577.03;2079896;28;25115;-72
2023/11/10 02:19:24;;;;;;;5.82;4.65;;;;;;;-146.25;100.00;52579.06;2078909;28;32220;-71
2023/11/10 02:20:26;;;;;;;5.40;4.22;;;;;;;-146.25;100.00;52587.19;2071818;28;20909;-71
2023/11/10 02:21:29;;;;;;;7.18;4.75;;;;;;;-146.25;100.00;52579.06;2079578;28;25214;-72
2023/11/10 02:22:30;;;;;;;6.75;4.50;;;;;;;-146.25;100.00;52575.00;2079735;28;20827;-71
2023/11/10 02:23:35;;;;;;;8.55;4.60;;;;;;;-146.25;100.00;52550.69;2071585;28;22114;-72
2023/11/10 02:24:41;;;;;;;4.88;4.00;;;;;;;-146.25;100.00;52548.66;2072020;28;26684;-72
2023/11/10 02:25:47;;;;;;;5.43;4.40;;;;;;;-146.25;100.00;52566.91;2073054;28;20050;-72
2023/11/10 02:26:49;;;;;;;4.75;4.10;;;;;;;-146.25;100.00;52542.56;2080710;28;33094;-72
2023/11/10 02:27:51;;;;;;;5.82;3.92;;;;;;;-146.25;100.00;52558.78;2079431;28;27653;-72
2023/11/10 02:28:56;;;;;;;5.28;4.10;;;;;;;-146.25;100.00;52534.47;2080299;28;20046;-72
2023/11/10 02:29:57;;;;;;;5.53;4.22;;;;;;;-146.25;100.00;52558.78;2088334;28;36476;-72
2023/11/10 02:30:59;;;;;;;5.25;4.47;;;;;;;-146.25;100.00;52562.84;2079362;28;31925;-72
2023/11/10 02:32:01;;;;;;;4.75;4.30;;;;;;;-146.25;100.00;52577.03;2080074;28;20065;-72
2023/11/10 02:33:03;;;;;;;6.13;4.22;;;;;;;-146.25;100.00;52593.25;2079336;28;32812;-71
2023/11/10 02:34:05;;;;;;;5.68;3.85;;;;;;;-146.25;100.00;52611.50;2063311;28;29423;-72
2023/11/10 02:35:08;;;;;;;4.60;3.78;;;;;;;-146.25;100.00;52603.41;2071786;28;20049;-71
2023/11/10 02:36:10;;;;;;;6.00;4.10;;;;;;;-146.25;100.00;52597.31;2079285;28;21523;-72
2023/11/10 02:37:13;;;;;;;4.85;3.60;;;;;;;-146.25;100.00;52548.66;2079417;28;27988;-72
2023/11/10 02:38:18;;;;;;;4.15;3.80;;;;;;;-146.25;100.00;52579.06;2092653;28;20152;-72
2023/11/10 02:39:20;;;;;;;3.97;3.47;;;;;;;-146.25;100.00;52593.25;2087786;28;20918;-72
2023/11/10 02:40:22;;;;;;;4.78;3.53;;;;;;;-146.25;100.00;52570.97;2087779;28;29355;-72
2023/11/10 02:41:24;;;;;;;3.72;3.25;;;;;;;-146.25;100.00;52587.19;2097099;28;20840;-71
2023/11/10 02:42:26;;;;;;;5.68;3.55;;;;;;;-146.25;100.00;52540.53;2096716;28;20156;-72
2023/11/10 02:43:28;;;;;;;5.00;3.47;;;;;;;-146.25;100.00;52607.47;2087985;28;20890;-71
2023/11/10 02:44:30;;;;;;;5.57;3.25;;;;;;;-146.25;100.00;52556.75;2088075;28;28868;-72
2023/11/10 02:45:34;;;;;;;4.70;2.97;;;;;;;-146.25;100.00;52542.56;2096623;28;28284;-72
2023/11/10 02:46:37;;;;;;;6.05;3.58;;;;;;;-146.25;100.00;52562.84;2096787;28;20041;-72
2023/11/10 02:47:38;;;;;;;3.55;3.25;;;;;;;-146.25;100.00;52601.38;2087883;28;23720;-70
2023/11/10 02:48:42;;;;;;;4.00;3.58;;;;;;;-146.25;100.00;52562.84;2079749;28;27396;-71
2023/11/10 02:49:44;;;;;;;5.22;3.08;;;;;;;-146.25;100.00;52550.69;2088190;28;28074;-71
2023/11/10 02:50:47;;;;;;;3.83;3.40;;;;;;;-146.25;100.00;52583.13;2096244;28;31760;-72
2023/11/10 02:51:50;;;;;;;8.32;3.10;;;;;;;-146.25;100.00;52591.25;2096974;28;20893;-71
2023/11/10 02:52:52;;;;;;;3.35;2.85;;;;;;;-146.25;100.00;52564.88;2095948;28;30868;-72
2023/11/10 02:53:56;;;;;;;5.53;3.05;;;;;;;-146.25;100.00;52564.88;2096227;28;24711;-71
2023/11/10 02:54:58;;;;;;;5.10;3.30;;;;;;;-146.25;100.00;52566.91;2087430;28;29357;-72
2023/11/10 02:56:01;;;;;;;4.00;3.28;;;;;;;-146.25;100.00;52593.25;2087524;28;30732;-71
2023/11/10 02:57:03;;;;;;;4.78;2.80;;;;;;;-146.25;100.00;52579.06;2096847;28;20163;-72
2023/11/10 02:58:05;;;;;;;4.30;3.08;;;;;;;-146.25;100.00;52562.84;2087848;28;20041;-71
2023/11/10 02:59:08;;;;;;;5.28;2.65;;;;;;;-146.25;100.00;52583.13;2071696;28;20038;-72
2023/11/10 03:00:10;;;;;;;7.70;2.80;;;;;;;-146.25;100.00;52566.91;2079456;28;30035;-72
2023/11/10 03:01:21;;;;;;;4.85;2.80;;;;;;;-146.25;100.00;52570.97;2097049;28;20051;-72
2023/11/10 03:02:23;;;;;;;;;;;;;;;-146.25;100.00;52550.69;2096671;28;29444;-73
2023/11/10 03:03:26;;;;;;;3.58;2.65;;;;;;;-146.25;100.00;52570.97;2096936;28;28840;-72
2023/11/10 03:04:28;;;;;;;4.82;2.70;;;;;;;-146.25;100.00;52583.13;2096278;28;30585;-71
2023/11/10 03:05:30;;;;;;;8.98;3.13;;;;;;;-146.25;100.00;52546.63;2095744;28;33044;-70
2023/11/10 03:06:32;;;;;;;4.32;2.80;;;;;;;-146.25;100.00;52591.25;2095904;28;28916;-72
2023/11/10 03:07:34;;;;;;;3.55;2.53;;;;;;;-146.25;100.00;52609.50;2097502;28;20778;-72
2023/11/10 03:08:36;;;;;;;4.40;2.50;;;;;;;-146.25;100.00;52575.00;2096761;28;29836;-72
2023/11/10 03:09:40;;;;;;;5.57;2.80;;;;;;;-146.25;100.00;52593.25;2096381;28;27690;-71
2023/11/10 03:10:42;;;;;;;4.05;2.60;;;;;;;-146.25;100.00;52566.91;2086905;28;37237;-72
2023/11/10 03:11:44;;;;;;;4.53;2.50;;;;;;;-146.25;100.00;52564.88;2071487;28;26694;-72
2023/11/10 03:12:50;;;;;;;3.60;2.58;;;;;;;-146.25;100.00;52615.56;2072552;28;20812;-71
2023/11/10 03:13:54;;;;;;;6.55;2.53;;;;;;;-146.25;100.00;52585.16;2087930;28;21007;-72
2023/11/10 03:14:57;;;;;;;5.47;2.53;;;;;;;-146.25;100.00;52581.09;2096498;28;26758;-72
2023/11/10 03:15:59;;;;;;;3.55;2.65;;;;;;;-146.25;100.00;52570.97;2097017;28;20826;-71
2023/11/10 03:17:01;;;;;;;4.18;2.60;;;;;;;-146.25;100.00;52573.00;2096339;28;33213;-72
2023/11/10 03:18:04;;;;;;;3.78;2.72;;;;;;;-146.25;100.00;52585.16;2096346;28;28940;-72
2023/11/10 03:19:06;;;;;;;3.70;2.28;;;;;;;-146.25;100.00;52566.91;2095993;28;31740;-72
2023/11/10 03:20:15;;;;;;;4.18;2.50;;;;;;;-146.25;100.00;52558.78;2097076;28;20040;-72
2023/11/10 03:21:22;;;;;;;4.90;2.38;;;;;;;-146.25;100.00;52579.06;2096374;28;20049;-71
2023/11/10 03:22:24;;;;;;;6.22;2.50;;;;;;;-146.25;100.00;52566.91;2095934;28;30654;-71
2023/11/10 03:23:26;;;;;;;3.35;2.58;;;;;;;-146.25;100.00;52627.75;2095697;28;25442;-72
2023/11/10 03:24:28;;;;;;;4.05;2.35;;;;;;;-146.25;100.00;52564.88;2096282;28;28743;-72
2023/11/10 03:25:30;;;;;;;5.15;2.60;;;;;;;-146.25;100.00;52615.56;2096082;28;29494;-72
2023/11/10 03:26:32;;;;;;;4.72;2.72;;;;;;;-146.25;100.00;52562.84;2087177;28;34336;-72
2023/11/10 03:27:33;;;;;;;4.32;2.53;;;;;;;-146.25;100.00;52575.00;2087362;28;30534;-71
2023/11/10 03:28:35;;;;;;;3.75;2.40;;;;;;;-146.25;100.00;52577.03;2096486;28;29772;-72
2023/11/10 03:29:37;;;;;;;4.97;2.40;;;;;;;-146.25;100.00;52593.25;2096212;28;28510;-72
2023/11/10 03:30:39;;;;;;;3.47;2.33;;;;;;;-146.25;100.00;52621.66;2087798;28;20440;-72
2023/11/10 03:31:41;;;;;;;6.10;2.63;;;;;;;-146.25;100.00;52603.41;2087919;28;20044;-72
2023/11/10 03:32:44;;;;;;;5.22;2.60;;;;;;;-146.25;100.00;52591.25;2086538;28;33149;-72
2023/11/10 03:33:46;;;;;;;5.30;2.33;;;;;;;-146.25;100.00;52605.44;2087808;28;20033;-72
2023/11/10 03:34:48;;;;;;;4.40;2.20;;;;;;;-146.25;100.00;52597.31;2088518;28;20046;-72
2023/11/10 03:35:51;;;;;;;5.20;2.47;;;;;;;-146.25;100.00;52589.22;2079319;28;20040;-73
2023/11/10 03:36:53;;;;;;;4.72;2.50;;;;;;;-146.25;100.00;52560.81;2079538;28;20050;-72
2023/11/10 03:37:55;;;;;;;4.38;2.80;;;;;;;-146.25;100.00;52573.00;2087446;28;20050;-73
2023/11/10 03:38:56;;;;;;;3.45;2.50;;;;;;;-146.25;100.00;52587.19;2096407;28;24705;-73
2023/11/10 03:39:59;;;;;;;7.13;2.85;;;;;;;-146.25;100.00;52573.00;2096528;28;20041;-71
2023/11/10 03:41:01;;;;;;;3.80;2.35;;;;;;;-146.25;100.00;52579.06;2096884;28;20045;-72
2023/11/10 03:42:04;;;;;;;5.85;2.67;;;;;;;-146.25;100.00;52554.75;2095842;28;26598;-71
2023/11/10 03:43:06;;;;;;;4.22;2.53;;;;;;;-146.25;100.00;52597.31;2096933;28;20883;-72
2023/11/10 03:44:10;;;;;;;4.57;2.72;;;;;;;-146.25;100.00;52587.19;2086751;28;35823;-72
2023/11/10 03:45:12;;;;;;;6.82;2.90;;;;;;;-146.25;100.00;52583.13;2088258;28;20041;-72
2023/11/10 03:46:14;;;;;;;9.02;2.78;;;;;;;-146.25;100.00;52603.41;2096144;28;34010;-72
2023/11/10 03:47:16;;;;;;;4.63;2.67;;;;;;;-146.25;100.00;52570.97;2096381;28;36185;-72
2023/11/10 03:48:18;;;;;;;3.80;2.55;;;;;;;-146.25;100.00;52575.00;2096777;28;20897;-71
2023/11/10 03:49:20;;;;;;;4.38;2.40;;;;;;;-146.25;100.00;52562.84;2096129;28;35871;-72
2023/11/10 03:50:22;;;;;;;6.25;2.40;;;;;;;-146.25;100.00;52591.25;2095772;28;30804;-72
2023/11/10 03:51:24;;;;;;;4.43;2.60;;;;;;;-146.25;100.00;52583.13;2096526;28;20901;-72
2023/11/10 03:52:25;;;;;;;5.93;2.78;;;;;;;-146.25;100.00;52546.63;2078630;28;31800;-72
2023/11/10 03:53:27;;;;;;;8.65;2.50;;;;;;;-146.25;100.00;52587.19;2070784;28;35200;-72
2023/11/10 03:54:30;;;;;;;3.65;2.60;;;;;;;-146.25;100.00;52558.78;2086926;28;33160;-72
2023/11/10 03:55:32;;;;;;;5.68;2.90;;;;;;;-146.25;100.00;52623.69;2095528;28;36400;-73
2023/11/10 03:56:35;;;;;;;5.07;2.60;;;;;;;-146.25;100.00;52566.91;2096206;28;37144;-72
2023/11/10 03:57:37;;;;;;;4.82;2.75;;;;;;;-146.25;100.00;52599.34;2096275;28;31699;-73
2023/11/10 03:58:38;;;;;;;4.25;2.70;;;;;;;-146.25;100.00;52595.28;2095937;28;38011;-72
2023/11/10 03:59:40;;;;;;;7.85;3.17;;;;;;;-146.25;100.00;52591.25;2096486;28;34901;-72
2023/11/10 04:00:44;;;;;;;4.88;2.70;;;;;;;-146.25;100.00;52556.75;2087648;28;20029;-71
2023/11/10 04:01:50;;;;;;;5.80;2.92;;;;;;;-146.25;100.00;52599.34;2089043;28;20080;-72
2023/11/10 04:02:52;;;;;;;3.25;2.65;;;;;;;-146.25;100.00;52575.00;2095805;28;34626;-71
2023/11/10 04:03:54;;;;;;;5.32;2.80;;;;;;;-146.25;100.00;52556.75;2096487;28;20033;-71
2023/11/10 04:04:55;;;;;;;3.95;2.85;;;;;;;-146.25;100.00;52583.13;2095990;28;36667;-71
2023/11/10 04:05:57;;;;;;;4.03;3.03;;;;;;;-146.25;100.00;52566.91;2095563;28;34099;-71
2023/11/10 04:06:59;;;;;;;5.63;2.90;;;;;;;-146.25;100.00;52570.97;2096106;28;31461;-71
2023/11/10 04:08:01;;;;;;;8.40;2.90;;;;;;;-146.25;100.00;52605.44;2087293;28;33256;-71
2023/11/10 04:09:03;;;;;;;2.70;2.50;;;;;;;-146.25;100.00;52587.19;2086990;28;33778;-71
2023/11/10 04:10:06;;;;;;;5.15;2.90;;;;;;;-146.25;100.00;52599.34;2088451;28;20048;-72
2023/11/10 04:11:07;;;;;;;4.05;2.70;;;;;;;-146.25;100.00;52566.91;2087072;28;36796;-71
2023/11/10 04:12:09;;;;;;;4.30;2.55;;;;;;;-146.25;100.00;52550.69;2088042;28;27757;-72
2023/11/10 04:13:11;;;;;;;4.68;2.70;;;;;;;-146.25;100.00;52577.03;2087593;28;31461;-71
2023/11/10 04:14:16;;;;;;;4.80;2.60;;;;;;;-146.25;100.00;52601.38;2088367;28;20849;-72
2023/11/10 04:15:17;;;;;;;4.28;2.63;;;;;;;-146.25;100.00;52589.22;2087468;28;34889;-72
2023/11/10 04:16:24;;;;;;;4.00;2.50;;;;;;;-146.25;100.00;52593.25;2088514;28;20115;-71
2023/11/10 04:17:28;;;;;;;4.00;2.50;;;;;;;-146.25;100.00;52564.88;2078633;28;37756;-71
2023/11/10 04:18:30;;;;;;;6.43;2.13;;;;;;;-146.25;100.00;52583.13;2080130;28;33122;-72
2023/11/10 04:19:33;;;;;;;4.07;2.13;;;;;;;-146.25;100.00;52595.28;2087160;28;35379;-72
2023/11/10 04:20:35;;;;;;;2.53;2.15;;;;;;;-146.25;100.00;52560.81;2078791;28;38195;-72
2023/11/10 04:21:36;;;;;;;3.83;1.95;;;;;;;-146.25;100.00;52564.88;2079600;28;20084;-71
2023/11/10 04:22:41;;;;;;;3.05;2.38;;;;;;;-146.25;100.00;52593.25;2087397;28;34972;-71
2023/11/10 04:23:43;;;;;;;3.88;2.25;;;;;;;-146.25;100.00;52579.06;2087697;28;36838;-72
2023/11/10 04:24:45;;;;;;;6.25;2.25;;;;;;;-146.25;100.00;52562.84;2079660;28;20026;-72
2023/11/10 04:25:47;;;;;;;3.83;2.08;;;;;;;-146.25;100.00;52554.75;2070528;28;37782;-72
2023/11/10 04:26:49;;;;;;;3.45;2.20;;;;;;;-146.25;100.00;52554.75;2079236;28;34221;-72
2023/11/10 04:27:51;;;;;;;3.63;1.95;;;;;;;-146.25;100.00;52550.69;2087429;28;34763;-72
2023/11/10 04:28:53;;;;;;;4.53;2.10;;;;;;;-146.25;100.00;52581.09;2088157;28;35531;-71
2023/11/10 04:29:55;;;;;;;4.85;2.00;;;;;;;-146.25;100.00;52609.50;2095704;28;36612;-73
2023/11/10 04:30:57;;;;;;;4.88;2.10;;;;;;;-146.25;100.00;52579.06;2096674;28;20170;-72
2023/11/10 04:31:59;;;;;;;4.70;1.95;;;;;;;-146.25;100.00;52575.00;2095635;28;36543;-71
2023/11/10 04:33:01;;;;;;;3.55;2.00;;;;;;;-146.25;100.00;52585.16;2096119;28;31453;-72
2023/11/10 04:34:02;;;;;;;4.45;1.83;;;;;;;-146.25;100.00;52581.09;2095936;28;32919;-71
2023/11/10 04:35:07;;;;;;;6.10;2.42;;;;;;;-146.25;100.00;52548.66;2096310;28;20135;-72
2023/11/10 04:36:12;;;;;;;4.50;1.77;;;;;;;-146.25;100.00;52570.97;2095626;28;34772;-71
2023/11/10 04:37:14;;;;;;;4.03;2.58;;;;;;;-146.25;100.00;52562.84;2087381;28;33438;-72
2023/11/10 04:38:16;;;;;;;6.80;2.05;;;;;;;-146.25;100.00;52585.16;2087471;28;38619;-72
2023/11/10 04:39:18;;;;;;;5.90;1.98;;;;;;;-146.25;100.00;52558.78;2095513;28;34560;-73
2023/11/10 04:40:19;;;;;;;3.08;2.30;;;;;;;-146.25;100.00;52546.63;2095784;28;35065;-71
2023/11/10 04:41:21;;;;;;;4.40;1.98;;;;;;;-146.25;100.00;52573.00;2095665;28;37023;-72
2023/11/10 04:42:28;;;;;;;2.40;2.08;;;;;;;-146.25;100.00;52599.34;2095812;28;36503;-71
2023/11/10 04:43:32;;;;;;;5.80;2.15;;;;;;;-146.25;100.00;52577.03;2096466;28;35238;-72
2023/11/10 04:44:34;;;;;;;4.45;1.95;;;;;;;-146.25;100.00;52617.59;2096747;28;39277;-72
2023/11/10 04:45:36;;;;;;;4.45;2.20;;;;;;;-146.25;100.00;52587.19;2097358;28;33001;-72